Terminal Aerodrome Forecast
Issued by NWS Cleveland, OH

Home | Current Version | Previous Version | Text Only | Print | Product List | Glossary Off
Versions: 1 2 3 4 5 6 7 8 9 10 11 12 13 14 15 16 17 18 19 20 21 22

000
FTUS41 KCLE 211700
TAFCAK
TAF
KCAK 211724Z 2118/2218 26015G25KT P6SM SCT040
     FM212200 29018G28KT P6SM SCT025 BKN035
      TEMPO 2200/2203 4SM -TSRA BKN015 OVC025CB
     FM220300 32010KT P6SM VCSH SCT009 OVC015
     FM221000 32008KT P6SM BKN025 OVC035=

USA.gov is the U.S. government's official web portal to all federal, state and local government web resources and services.